Time;durP1;ratioP1;P1;durP2;ratioP2;P2;SDS_P1;SDS_P2;PMS_P1;PMS_P2;Temp;Humidity;BMP_temperature;BMP_pressure;BME280_temperature;BME280_humidity;BME280_pressure;Samples;Min_cycle;Max_cycle;Signal;HPM_P1;HPM_P2
2022/02/22 00:01:12;;;;;;;2.47;1.63;;;5.00;99.90;;;;;;5084849;28;20212;-84
2022/02/22 00:03:39;;;;;;;2.85;1.60;;;5.10;99.90;;;;;;5082497;28;20205;-85
2022/02/22 00:06:06;;;;;;;1.95;1.73;;;5.10;99.90;;;;;;5082377;28;20212;-83
2022/02/22 00:08:33;;;;;;;2.10;0.88;;;5.10;99.90;;;;;;5082793;28;20229;-83
2022/02/22 00:11:00;;;;;;;3.92;1.23;;;5.10;99.90;;;;;;5082492;28;20580;-84
2022/02/22 00:13:28;;;;;;;3.22;2.08;;;5.20;99.90;;;;;;5082864;28;20216;-84
2022/02/22 00:15:56;;;;;;;1.58;0.82;;;5.20;99.90;;;;;;5082677;28;20557;-84
2022/02/22 00:18:24;;;;;;;3.45;1.60;;;5.30;99.90;;;;;;5082765;28;20220;-84
2022/02/22 00:20:51;;;;;;;2.95;1.60;;;5.30;99.90;;;;;;5083567;28;20202;-84
2022/02/22 00:23:18;;;;;;;1.88;1.45;;;5.30;99.90;;;;;;5087282;28;20211;-83
2022/02/22 00:25:44;;;;;;;1.65;1.08;;;5.30;99.90;;;;;;5086868;28;20197;-83
2022/02/22 00:28:11;;;;;;;0.98;0.82;;;5.20;99.90;;;;;;5087098;28;20229;-83
2022/02/22 00:30:38;;;;;;;0.73;0.73;;;5.20;99.90;;;;;;5083299;28;20227;-84
2022/02/22 00:33:05;;;;;;;2.65;0.95;;;5.20;99.90;;;;;;5081696;28;20204;-84
2022/02/22 00:35:33;;;;;;;2.92;1.20;;;4.90;99.90;;;;;;5082320;28;20205;-82
2022/02/22 00:38:00;;;;;;;1.85;1.20;;;4.80;99.90;;;;;;5082148;28;20256;-84
2022/02/22 00:40:26;;;;;;;2.05;1.10;;;4.70;99.90;;;;;;5081503;28;20211;-84
2022/02/22 00:42:53;;;;;;;2.42;1.23;;;4.80;99.90;;;;;;5089053;28;20209;-82
2022/02/22 00:45:20;;;;;;;1.77;1.08;;;4.80;99.90;;;;;;5088975;28;20747;-82
2022/02/22 00:47:47;;;;;;;3.72;1.75;;;4.90;99.90;;;;;;5089912;28;20232;-82
2022/02/22 00:50:14;;;;;;;1.30;1.08;;;4.90;99.90;;;;;;5089310;28;20212;-82
2022/02/22 00:52:42;;;;;;;9.40;1.65;;;4.90;99.90;;;;;;5086779;28;20211;-83
2022/02/22 00:55:10;;;;;;;2.75;1.10;;;4.90;99.90;;;;;;5080922;28;20211;-82
2022/02/22 00:57:37;;;;;;;0.80;0.80;;;5.00;99.90;;;;;;5081280;28;20225;-83
2022/02/22 01:00:05;;;;;;;0.75;0.75;;;5.00;99.90;;;;;;5081548;28;20204;-82
2022/02/22 01:02:32;;;;;;;0.60;0.60;;;5.00;99.90;;;;;;5080629;28;20205;-82
2022/02/22 01:04:59;;;;;;;2.80;1.33;;;5.00;99.90;;;;;;5080463;28;20202;-83
2022/02/22 01:07:26;;;;;;;1.20;1.10;;;5.10;99.90;;;;;;5079731;28;20239;-81
2022/02/22 01:09:54;;;;;;;2.15;1.30;;;5.00;99.90;;;;;;5080649;28;20288;-83
2022/02/22 01:12:20;;;;;;;0.85;0.85;;;5.00;99.90;;;;;;5085931;28;20200;-83
2022/02/22 01:14:47;;;;;;;2.78;1.40;;;5.00;99.90;;;;;;5085257;28;20205;-83
2022/02/22 01:17:14;;;;;;;3.97;1.63;;;5.00;99.90;;;;;;5085238;28;20231;-83
2022/02/22 01:19:41;;;;;;;1.20;1.20;;;5.00;99.90;;;;;;5084476;28;20201;-82
2022/02/22 01:22:08;;;;;;;2.17;1.50;;;4.90;99.90;;;;;;5087117;28;20209;-83
2022/02/22 01:24:35;;;;;;;1.25;1.17;;;5.00;99.90;;;;;;5081023;28;20212;-82
2022/02/22 01:27:03;;;;;;;2.75;0.85;;;4.90;99.90;;;;;;5081807;28;20204;-83
2022/02/22 01:29:30;;;;;;;6.32;1.40;;;4.90;99.90;;;;;;5080600;28;20193;-83
2022/02/22 01:31:56;;;;;;;1.65;0.77;;;4.90;99.90;;;;;;5080745;28;20208;-84
2022/02/22 01:34:23;;;;;;;3.33;2.22;;;4.90;99.90;;;;;;5081090;28;20551;-84
2022/02/22 01:36:50;;;;;;;1.95;1.05;;;4.90;99.90;;;;;;5081023;28;20209;-84
2022/02/22 01:39:17;;;;;;;3.70;0.90;;;4.80;99.90;;;;;;5080379;28;20213;-84
2022/02/22 01:41:45;;;;;;;1.30;1.20;;;4.60;99.90;;;;;;5079905;28;20204;-83
2022/02/22 01:44:14;;;;;;;1.55;0.65;;;4.50;99.90;;;;;;5081619;28;20207;-83
2022/02/22 01:46:41;;;;;;;1.08;1.02;;;4.40;99.90;;;;;;5083517;28;20580;-83
2022/02/22 01:49:08;;;;;;;1.90;1.05;;;4.30;99.90;;;;;;5087853;28;20238;-82
2022/02/22 01:51:38;;;;;;;4.20;0.90;;;4.20;99.90;;;;;;5083583;28;20210;-83
2022/02/22 01:54:04;;;;;;;1.90;1.20;;;4.20;99.90;;;;;;5084129;28;20235;-83
2022/02/22 01:56:32;;;;;;;1.63;1.02;;;4.20;99.90;;;;;;5083786;28;20212;-83
2022/02/22 01:58:59;;;;;;;4.00;2.08;;;4.10;99.90;;;;;;5083858;28;20224;-82
2022/02/22 02:01:27;;;;;;;3.25;1.23;;;4.20;99.90;;;;;;5083196;28;20564;-83
2022/02/22 02:03:54;;;;;;;3.05;0.90;;;4.20;99.90;;;;;;5083995;28;20211;-83
2022/02/22 02:06:21;;;;;;;0.80;0.70;;;4.30;99.90;;;;;;5084407;28;20583;-83
2022/02/22 02:08:48;;;;;;;5.97;1.77;;;4.20;99.90;;;;;;5081735;28;20716;-84
2022/02/22 02:11:14;;;;;;;2.03;1.15;;;4.30;99.90;;;;;;5080000;28;20292;-84
2022/02/22 02:13:41;;;;;;;5.50;1.50;;;4.30;99.90;;;;;;5080189;28;20646;-83
2022/02/22 02:16:08;;;;;;;1.67;1.25;;;4.30;99.90;;;;;;5079217;28;20208;-84
2022/02/22 02:18:36;;;;;;;1.05;0.80;;;4.20;99.90;;;;;;5079837;28;20220;-83
2022/02/22 02:21:03;;;;;;;3.13;1.45;;;4.30;99.90;;;;;;5083177;28;20208;-83
2022/02/22 02:23:31;;;;;;;3.05;1.27;;;4.20;99.90;;;;;;5083645;28;20204;-83
2022/02/22 02:25:58;;;;;;;4.35;1.23;;;4.30;99.90;;;;;;5083664;28;20223;-83
2022/02/22 02:28:25;;;;;;;3.95;1.45;;;4.30;99.90;;;;;;5081858;28;20228;-83
2022/02/22 02:30:51;;;;;;;1.48;0.82;;;4.20;99.90;;;;;;5078565;28;20207;-82
2022/02/22 02:33:18;;;;;;;2.47;1.85;;;4.20;99.90;;;;;;5079152;28;20212;-83
2022/02/22 02:35:45;;;;;;;5.75;1.50;;;4.20;99.90;;;;;;5078750;28;20204;-83
2022/02/22 02:38:12;;;;;;;1.10;0.95;;;4.20;99.90;;;;;;5078900;28;20297;-82
2022/02/22 02:40:40;;;;;;;2.63;1.05;;;4.10;99.90;;;;;;5077739;28;20210;-83
2022/02/22 02:43:07;;;;;;;1.15;0.90;;;4.10;99.90;;;;;;5077371;28;20208;-82
2022/02/22 02:45:34;;;;;;;8.52;1.98;;;4.10;99.90;;;;;;5078121;28;20210;-83
2022/02/22 02:48:00;;;;;;;9.20;1.60;;;4.10;99.90;;;;;;5078211;28;20229;-83
2022/02/22 02:50:27;;;;;;;5.78;2.20;;;4.10;99.90;;;;;;5077332;28;20669;-82
2022/02/22 02:52:54;;;;;;;1.63;1.52;;;4.10;99.90;;;;;;5077851;28;20212;-81
2022/02/22 02:55:21;;;;;;;0.55;0.55;;;4.10;99.90;;;;;;5078239;28;20195;-82
2022/02/22 02:57:50;;;;;;;2.00;1.02;;;4.10;99.90;;;;;;5077338;28;20241;-83
2022/02/22 03:00:17;;;;;;;6.38;1.98;;;4.10;99.90;;;;;;5077983;28;20320;-83
2022/02/22 03:02:44;;;;;;;1.27;1.17;;;4.10;99.90;;;;;;5077838;28;20220;-83
2022/02/22 03:05:11;;;;;;;1.45;1.35;;;4.10;99.90;;;;;;5077612;28;20203;-82
2022/02/22 03:07:37;;;;;;;1.67;1.50;;;4.20;99.90;;;;;;5077096;28;20226;-83
2022/02/22 03:10:05;;;;;;;2.53;1.45;;;4.20;99.90;;;;;;5077996;28;20211;-83
2022/02/22 03:12:32;;;;;;;2.42;1.58;;;4.20;99.90;;;;;;5077392;28;20203;-83
2022/02/22 03:15:00;;;;;;;3.58;1.80;;;4.20;99.90;;;;;;5077998;28;20204;-82
2022/02/22 03:17:27;;;;;;;2.55;1.73;;;4.10;99.90;;;;;;5077363;28;20226;-82
2022/02/22 03:19:54;;;;;;;3.35;1.98;;;4.10;99.90;;;;;;5077311;28;20202;-83
2022/02/22 03:22:20;;;;;;;1.10;1.02;;;4.20;99.90;;;;;;5077798;28;20211;-83
2022/02/22 03:24:48;;;;;;;2.67;1.33;;;4.20;99.90;;;;;;5077808;28;20210;-83
2022/02/22 03:27:15;;;;;;;1.60;1.50;;;4.20;99.90;;;;;;5078098;28;20235;-82
2022/02/22 03:29:42;;;;;;;3.60;1.95;;;4.20;99.90;;;;;;5076310;28;20250;-83
2022/02/22 03:32:10;;;;;;;2.20;1.48;;;4.20;99.90;;;;;;5077322;28;20573;-83
2022/02/22 03:34:37;;;;;;;1.17;1.15;;;4.10;99.90;;;;;;5076540;28;20205;-82
2022/02/22 03:37:04;;;;;;;2.67;1.33;;;4.10;99.90;;;;;;5077184;28;20212;-83
2022/02/22 03:39:31;;;;;;;0.80;0.75;;;4.10;99.90;;;;;;5077735;28;20688;-83
2022/02/22 03:41:58;;;;;;;2.50;1.30;;;4.10;99.90;;;;;;5078197;28;20211;-82
2022/02/22 03:44:25;;;;;;;1.58;1.48;;;4.10;99.90;;;;;;5078004;28;20200;-82
2022/02/22 03:46:52;;;;;;;2.60;1.75;;;4.10;99.90;;;;;;5077197;28;20314;-83
2022/02/22 03:49:20;;;;;;;9.55;2.13;;;4.10;99.90;;;;;;5077501;28;20225;-82
2022/02/22 03:51:47;;;;;;;2.75;1.60;;;4.10;99.90;;;;;;5084790;28;20219;-82
2022/02/22 03:54:13;;;;;;;1.92;1.60;;;4.00;99.90;;;;;;5092117;28;20200;-82
2022/02/22 03:56:40;;;;;;;1.10;1.00;;;4.10;99.90;;;;;;5087192;28;20207;-82
2022/02/22 03:59:07;;;;;;;2.50;0.93;;;4.10;99.90;;;;;;5086781;28;20291;-82
2022/02/22 04:01:33;;;;;;;1.65;0.98;;;4.10;99.90;;;;;;5079636;28;20216;-84
2022/02/22 04:04:00;;;;;;;1.73;1.63;;;4.10;99.90;;;;;;5078077;28;20549;-84
2022/02/22 04:06:28;;;;;;;7.03;1.70;;;4.10;99.90;;;;;;5078260;28;20197;-84
2022/02/22 04:08:55;;;;;;;8.65;2.03;;;4.10;99.90;;;;;;5078252;28;20217;-84
2022/02/22 04:11:22;;;;;;;4.25;2.30;;;4.20;99.90;;;;;;5078628;28;20750;-84
2022/02/22 04:13:49;;;;;;;2.42;1.17;;;4.20;99.90;;;;;;5080791;28;20207;-83
2022/02/22 04:16:16;;;;;;;9.55;1.88;;;4.30;99.90;;;;;;5083509;28;20209;-84
2022/02/22 04:18:42;;;;;;;4.75;1.77;;;4.30;99.90;;;;;;5081729;28;20217;-83
2022/02/22 04:21:09;;;;;;;4.85;2.00;;;4.30;99.90;;;;;;5082676;28;20210;-83
2022/02/22 04:23:37;;;;;;;5.20;2.05;;;4.30;99.90;;;;;;5082326;28;20561;-83
2022/02/22 04:26:04;;;;;;;4.95;3.22;;;4.30;99.90;;;;;;5082879;28;20216;-83
2022/02/22 04:28:31;;;;;;;3.53;1.65;;;4.30;99.90;;;;;;5083176;28;20224;-83
2022/02/22 04:30:57;;;;;;;2.05;1.85;;;4.30;99.90;;;;;;5082700;28;20216;-84
2022/02/22 04:33:24;;;;;;;1.60;1.45;;;4.20;99.90;;;;;;5082038;28;20744;-83
2022/02/22 04:35:51;;;;;;;2.78;1.85;;;4.20;99.90;;;;;;5082428;28;20204;-83
2022/02/22 04:38:17;;;;;;;4.25;1.92;;;4.20;99.90;;;;;;5081065;28;20240;-84
2022/02/22 04:40:47;;;;;;;5.20;1.75;;;4.10;99.90;;;;;;5080020;28;20209;-84
2022/02/22 04:43:14;;;;;;;4.18;2.20;;;4.10;99.90;;;;;;5082142;28;20571;-84
2022/02/22 04:45:41;;;;;;;2.72;2.47;;;4.10;99.90;;;;;;5081185;28;20727;-84
2022/02/22 04:48:07;;;;;;;4.13;2.55;;;4.20;99.90;;;;;;5081594;28;20235;-84
2022/02/22 04:50:34;;;;;;;2.58;2.17;;;4.00;99.90;;;;;;5081791;28;20212;-84
2022/02/22 04:53:01;;;;;;;2.30;1.40;;;4.00;99.90;;;;;;5082390;28;20231;-83
2022/02/22 04:55:28;;;;;;;2.65;2.25;;;3.90;99.90;;;;;;5085541;28;20201;-83
2022/02/22 04:57:56;;;;;;;4.30;2.08;;;3.90;99.90;;;;;;5085522;28;20243;-83
2022/02/22 05:00:23;;;;;;;4.57;1.80;;;3.90;99.90;;;;;;5085085;28;20205;-83
2022/02/22 05:02:49;;;;;;;5.25;2.10;;;3.70;99.90;;;;;;5085519;28;20207;-83
2022/02/22 05:05:16;;;;;;;2.63;2.50;;;3.80;99.90;;;;;;5086218;28;20207;-83
2022/02/22 05:07:43;;;;;;;5.10;1.90;;;3.80;99.90;;;;;;5085885;28;20224;-83
2022/02/22 05:10:10;;;;;;;3.88;2.30;;;3.70;99.90;;;;;;5083714;28;20227;-84
2022/02/22 05:12:37;;;;;;;4.50;2.05;;;3.70;99.90;;;;;;5082708;28;20209;-83
2022/02/22 05:15:06;;;;;;;4.70;3.00;;;3.70;99.90;;;;;;5085258;28;20206;-83
2022/02/22 05:17:33;;;;;;;5.00;2.15;;;3.80;99.90;;;;;;5087147;28;20229;-82
2022/02/22 05:20:00;;;;;;;3.80;1.70;;;3.80;99.90;;;;;;5088170;28;20204;-81
2022/02/22 05:22:27;;;;;;;9.23;2.60;;;3.60;99.90;;;;;;5081571;28;20199;-84
2022/02/22 05:24:54;;;;;;;5.95;2.78;;;3.70;99.90;;;;;;5081606;28;20212;-82
2022/02/22 05:27:21;;;;;;;3.30;1.92;;;3.60;99.90;;;;;;5088916;28;20223;-82
2022/02/22 05:29:48;;;;;;;2.80;2.25;;;3.60;99.90;;;;;;5087918;28;20216;-82
2022/02/22 05:32:16;;;;;;;2.75;1.20;;;3.60;99.90;;;;;;5088959;28;20256;-82
2022/02/22 05:34:42;;;;;;;6.78;3.55;;;3.60;99.90;;;;;;5089525;28;20201;-83
2022/02/22 05:37:09;;;;;;;6.40;1.92;;;3.60;99.90;;;;;;5086066;28;20239;-83
2022/02/22 05:39:36;;;;;;;4.10;2.30;;;3.60;99.90;;;;;;5085073;28;20204;-83
2022/02/22 05:42:03;;;;;;;3.35;1.95;;;3.60;99.90;;;;;;5084232;28;20246;-83
2022/02/22 05:44:30;;;;;;;1.42;1.20;;;3.60;99.90;;;;;;5081795;28;20222;-81
2022/02/22 05:46:57;;;;;;;6.47;2.05;;;3.50;99.90;;;;;;5079805;28;20197;-82
2022/02/22 05:49:25;;;;;;;2.63;1.80;;;3.50;99.90;;;;;;5079368;28;20234;-83
2022/02/22 05:51:54;;;;;;;5.90;1.83;;;3.50;99.90;;;;;;5077930;28;20326;-83
2022/02/22 05:54:21;;;;;;;6.05;2.03;;;3.50;99.90;;;;;;5079940;28;20218;-85
2022/02/22 05:56:48;;;;;;;2.85;2.65;;;3.50;99.90;;;;;;5080679;28;20208;-84
2022/02/22 05:59:15;;;;;;;1.88;1.48;;;3.50;99.90;;;;;;5081183;28;20646;-84
2022/02/22 06:01:43;;;;;;;2.78;1.75;;;3.50;99.90;;;;;;5079716;28;20212;-82
2022/02/22 06:04:10;;;;;;;2.50;2.28;;;3.50;99.90;;;;;;5079839;28;20209;-83
2022/02/22 06:06:38;;;;;;;1.98;1.88;;;3.50;99.90;;;;;;5079302;28;20201;-82
2022/02/22 06:09:05;;;;;;;6.68;3.08;;;3.40;99.90;;;;;;5078295;28;20221;-82
2022/02/22 06:11:32;;;;;;;4.13;2.20;;;3.40;99.90;;;;;;5078797;28;20206;-83
2022/02/22 06:13:59;;;;;;;1.85;1.70;;;3.40;99.90;;;;;;5079339;28;20197;-83
2022/02/22 06:16:27;;;;;;;4.38;2.20;;;3.40;99.90;;;;;;5082177;28;20206;-83
2022/02/22 06:18:54;;;;;;;4.38;1.80;;;3.40;99.90;;;;;;5083170;28;20560;-83
2022/02/22 06:21:21;;;;;;;8.57;3.30;;;3.40;99.90;;;;;;5079019;28;20203;-83
2022/02/22 06:23:49;;;;;;;4.57;2.95;;;3.40;99.90;;;;;;5079216;28;20207;-83
2022/02/22 06:26:16;;;;;;;5.57;2.95;;;3.40;99.90;;;;;;5078916;28;20262;-83
2022/02/22 06:28:43;;;;;;;4.55;2.25;;;3.40;99.90;;;;;;5079165;28;20592;-83
2022/02/22 06:31:09;;;;;;;7.30;3.58;;;3.40;99.90;;;;;;5078258;28;20208;-82
2022/02/22 06:33:36;;;;;;;3.85;2.75;;;3.40;99.90;;;;;;5078541;28;20223;-82
2022/02/22 06:36:03;;;;;;;2.85;2.70;;;3.30;99.90;;;;;;5079031;28;20579;-83
2022/02/22 06:38:30;;;;;;;2.53;2.30;;;3.30;99.90;;;;;;5081811;28;20274;-83
2022/02/22 06:40:58;;;;;;;3.70;3.42;;;3.30;99.90;;;;;;5083737;28;20204;-83
2022/02/22 06:43:25;;;;;;;2.40;2.22;;;3.30;99.90;;;;;;5083997;28;20571;-83
2022/02/22 06:45:52;;;;;;;9.05;4.18;;;3.30;99.90;;;;;;5084305;28;20213;-83
2022/02/22 06:48:18;;;;;;;2.38;2.10;;;3.30;99.90;;;;;;5085014;28;20223;-83
2022/02/22 06:50:45;;;;;;;6.28;2.75;;;3.30;99.90;;;;;;5087914;28;20232;-83
2022/02/22 06:53:12;;;;;;;3.58;3.28;;;3.30;99.90;;;;;;5087578;28;20208;-82
2022/02/22 06:55:40;;;;;;;4.85;2.60;;;3.30;99.90;;;;;;5082175;28;20200;-82
2022/02/22 06:58:10;;;;;;;3.08;2.70;;;3.30;99.90;;;;;;5082889;28;20599;-83
2022/02/22 07:00:43;;;;;;;5.22;2.92;;;3.30;99.90;;;;;;5077324;28;20196;-82
2022/02/22 07:03:11;;;;;;;4.60;2.35;;;3.30;99.90;;;;;;5074724;28;20628;-80
2022/02/22 07:05:38;;;;;;;2.95;2.75;;;3.30;99.90;;;;;;5075816;28;20203;-81
2022/02/22 07:08:05;;;;;;;2.40;1.80;;;3.40;99.90;;;;;;5079171;28;20238;-81
2022/02/22 07:10:32;;;;;;;5.30;2.53;;;3.40;99.90;;;;;;5081158;28;20223;-82
2022/02/22 07:12:59;;;;;;;4.18;2.40;;;3.40;99.90;;;;;;5083595;28;20205;-82
2022/02/22 07:15:27;;;;;;;2.90;2.03;;;3.40;99.90;;;;;;5084053;28;20204;-81
2022/02/22 07:17:55;;;;;;;3.33;2.95;;;3.50;99.90;;;;;;5082605;28;20254;-81
2022/02/22 07:20:24;;;;;;;3.08;2.40;;;3.50;99.90;;;;;;5081256;28;20200;-81
2022/02/22 07:22:52;;;;;;;3.33;2.40;;;3.60;99.90;;;;;;5090633;28;20286;-81
2022/02/22 07:25:20;;;;;;;4.68;2.90;;;3.60;99.90;;;;;;5093504;28;20259;-81
2022/02/22 07:27:47;;;;;;;12.93;3.13;;;3.70;99.90;;;;;;5089026;28;20228;-81
2022/02/22 07:30:16;;;;;;;4.55;2.83;;;3.80;99.90;;;;;;5087004;28;20227;-81
2022/02/22 07:32:44;;;;;;;3.08;2.28;;;3.80;99.90;;;;;;5065634;28;20210;-81
2022/02/22 07:35:12;;;;;;;1.50;1.40;;;3.80;99.90;;;;;;5068562;28;20208;-81
2022/02/22 07:37:39;;;;;;;2.53;2.42;;;3.90;99.90;;;;;;5086681;28;20231;-82
2022/02/22 07:40:08;;;;;;;8.13;2.25;;;3.90;99.90;;;;;;5083154;28;20203;-82
2022/02/22 07:42:35;;;;;;;3.15;2.20;;;3.90;99.90;;;;;;5084835;28;20307;-82
2022/02/22 07:45:02;;;;;;;2.55;2.35;;;4.00;99.90;;;;;;5077594;28;20197;-82
2022/02/22 07:47:29;;;;;;;7.30;2.67;;;4.10;99.90;;;;;;5073725;28;20748;-82
2022/02/22 07:49:58;;;;;;;4.80;2.10;;;4.10;99.90;;;;;;5073852;28;20220;-82
2022/02/22 07:52:25;;;;;;;5.10;2.47;;;4.10;99.90;;;;;;5074775;28;20480;-82
2022/02/22 07:54:52;;;;;;;3.90;2.25;;;4.20;99.90;;;;;;5076552;28;20264;-82
2022/02/22 07:57:19;;;;;;;3.78;3.08;;;4.30;99.90;;;;;;5075347;28;20239;-81
2022/02/22 07:59:46;;;;;;;5.97;2.63;;;4.30;99.90;;;;;;5076813;28;20196;-82
2022/02/22 08:02:12;;;;;;;3.13;2.38;;;4.40;99.90;;;;;;5073954;28;20209;-85
2022/02/22 08:04:40;;;;;;;9.68;2.63;;;4.40;99.90;;;;;;5067558;28;20205;-82
2022/02/22 08:07:10;;;;;;;4.85;1.75;;;4.50;99.90;;;;;;5073839;28;20197;-82
2022/02/22 08:09:37;;;;;;;4.45;2.33;;;4.60;99.90;;;;;;5068158;28;20256;-82
2022/02/22 08:12:05;;;;;;;3.05;1.50;;;4.60;99.90;;;;;;5073712;28;20213;-82
2022/02/22 08:14:31;;;;;;;4.22;2.08;;;4.70;99.90;;;;;;5073949;28;20198;-82
2022/02/22 08:17:00;;;;;;;5.22;2.60;;;4.80;99.90;;;;;;5080650;28;20209;-82
2022/02/22 08:19:26;;;;;;;2.40;2.20;;;4.90;99.90;;;;;;5081616;28;20207;-83
2022/02/22 08:21:53;;;;;;;3.53;2.03;;;5.00;99.90;;;;;;5081728;28;20219;-83
2022/02/22 08:24:22;;;;;;;2.88;2.63;;;5.00;99.90;;;;;;5076495;28;20239;-81
2022/02/22 08:26:49;;;;;;;2.67;1.88;;;5.10;99.90;;;;;;5074754;28;20691;-84
2022/02/22 08:29:16;;;;;;;2.00;1.20;;;5.20;99.90;;;;;;5080876;28;20216;-84
2022/02/22 08:31:43;;;;;;;5.13;2.03;;;5.10;99.90;;;;;;5088545;28;20230;-84
2022/02/22 08:34:10;;;;;;;2.17;1.98;;;5.30;99.90;;;;;;5083469;28;20215;-83
2022/02/22 08:36:36;;;;;;;1.90;1.80;;;5.30;99.90;;;;;;5087947;28;20193;-82
2022/02/22 08:39:04;;;;;;;2.35;2.08;;;5.40;99.90;;;;;;5091305;28;20224;-83
2022/02/22 08:41:32;;;;;;;3.80;2.05;;;5.60;99.90;;;;;;5084473;28;20655;-81
2022/02/22 08:44:01;;;;;;;1.60;1.50;;;5.70;99.90;;;;;;5076146;28;20201;-82
2022/02/22 08:46:27;;;;;;;5.00;2.60;;;5.60;99.90;;;;;;5075654;28;20268;-80
2022/02/22 08:48:54;;;;;;;3.00;2.35;;;5.80;99.90;;;;;;5076074;28;20225;-81
2022/02/22 08:51:21;;;;;;;6.72;2.13;;;5.90;99.90;;;;;;5075692;28;20221;-82
2022/02/22 08:53:48;;;;;;;2.30;1.60;;;5.90;99.90;;;;;;5076248;28;20209;-80
2022/02/22 08:56:15;;;;;;;5.32;2.75;;;5.90;99.90;;;;;;5075767;28;20205;-81
2022/02/22 08:58:43;;;;;;;2.28;2.15;;;5.80;99.90;;;;;;5075906;28;20224;-81
2022/02/22 09:01:10;;;;;;;6.18;2.00;;;6.00;99.90;;;;;;5072179;28;20197;-81
2022/02/22 09:03:36;;;;;;;3.85;2.58;;;6.00;99.90;;;;;;5069991;28;20232;-81
2022/02/22 09:06:03;;;;;;;5.05;2.05;;;5.90;99.90;;;;;;5077589;28;20208;-81
2022/02/22 09:08:30;;;;;;;4.47;2.28;;;5.80;99.90;;;;;;5077135;28;20229;-81
2022/02/22 09:10:57;;;;;;;5.75;2.13;;;5.80;99.90;;;;;;5076114;28;20227;-81
2022/02/22 09:13:24;;;;;;;2.22;1.98;;;5.90;99.90;;;;;;5076593;28;20295;-81
2022/02/22 09:15:53;;;;;;;2.38;1.80;;;5.90;99.90;;;;;;5082558;28;20212;-83
2022/02/22 09:18:20;;;;;;;5.68;2.20;;;6.00;99.90;;;;;;5080388;28;20221;-82
2022/02/22 09:20:47;;;;;;;4.05;1.85;;;5.90;99.90;;;;;;5068269;28;20201;-82
2022/02/22 09:23:14;;;;;;;5.00;2.67;;;6.00;99.90;;;;;;5081378;28;20205;-82
2022/02/22 09:25:41;;;;;;;6.10;2.10;;;6.00;99.90;;;;;;5079340;28;20202;-82
2022/02/22 09:28:09;;;;;;;3.47;2.50;;;6.00;99.90;;;;;;5077960;28;20225;-82
2022/02/22 09:30:37;;;;;;;8.77;2.30;;;6.10;99.90;;;;;;5077460;28;20232;-82
2022/02/22 09:33:09;;;;;;;7.50;2.90;;;6.20;99.90;;;;;;5078256;28;20209;-82
2022/02/22 09:35:36;;;;;;;3.03;1.33;;;6.30;99.90;;;;;;5078236;28;20265;-82
2022/02/22 09:38:03;;;;;;;2.38;2.17;;;6.30;99.90;;;;;;5077002;28;20229;-82
2022/02/22 09:40:30;;;;;;;3.55;2.38;;;6.30;99.90;;;;;;5077387;28;20197;-82
2022/02/22 09:42:59;;;;;;;1.80;1.40;;;6.30;99.90;;;;;;5080258;28;20201;-81
2022/02/22 09:45:28;;;;;;;4.00;2.30;;;6.30;99.90;;;;;;5087923;28;20197;-84
2022/02/22 09:48:01;;;;;;;4.65;1.52;;;6.30;99.90;;;;;;5090750;28;20266;-85
2022/02/22 09:50:29;;;;;;;8.02;2.22;;;6.40;99.90;;;;;;5089303;28;20288;-82
2022/02/22 09:52:56;;;;;;;7.85;3.38;;;6.40;99.90;;;;;;5087657;28;20215;-83
2022/02/22 09:55:22;;;;;;;2.97;2.00;;;6.50;99.90;;;;;;5088060;28;20663;-83
2022/02/22 09:57:51;;;;;;;2.75;1.25;;;6.50;99.90;;;;;;5087068;28;20225;-83
2022/02/22 10:00:20;;;;;;;6.53;1.38;;;6.70;99.90;;;;;;5082133;28;20204;-83
2022/02/22 10:02:47;;;;;;;3.75;1.52;;;6.70;99.90;;;;;;5086265;28;20212;-84
2022/02/22 10:05:15;;;;;;;2.75;2.55;;;6.50;99.90;;;;;;5086518;28;20272;-83
2022/02/22 10:07:54;;;;;;;3.20;2.20;;;6.50;99.90;;;;;;5068918;28;20228;-83
2022/02/22 10:10:33;;;;;;;2.13;1.90;;;6.50;99.90;;;;;;5086801;28;20246;-82
2022/02/22 10:13:01;;;;;;;7.43;1.60;;;6.50;99.90;;;;;;5087620;28;20270;-83
2022/02/22 10:15:28;;;;;;;2.83;2.08;;;6.50;99.90;;;;;;5086792;28;20201;-81
2022/02/22 10:17:55;;;;;;;7.95;2.00;;;6.50;99.90;;;;;;5086178;28;20232;-83
2022/02/22 10:20:21;;;;;;;4.30;2.40;;;6.60;99.90;;;;;;5085476;28;20201;-82
2022/02/22 10:22:52;;;;;;;3.70;2.00;;;6.60;99.90;;;;;;5065594;28;20205;-83
2022/02/22 10:25:19;;;;;;;2.90;2.25;;;6.70;99.90;;;;;;5064443;28;20213;-83
2022/02/22 10:27:48;;;;;;;3.35;2.10;;;6.90;99.90;;;;;;5065499;28;20293;-83
2022/02/22 10:30:43;;;;;;;4.65;1.98;;;7.00;99.90;;;;;;5064822;28;20218;-83
2022/02/22 10:33:12;;;;;;;6.47;2.95;;;7.00;99.90;;;;;;5067720;28;20216;-82
2022/02/22 10:35:40;;;;;;;3.55;1.63;;;7.10;99.90;;;;;;5066936;28;20202;-83
2022/02/22 10:38:17;;;;;;;5.25;3.05;;;7.00;99.90;;;;;;5067260;28;20245;-82
2022/02/22 10:40:51;;;;;;;4.20;1.98;;;7.20;99.90;;;;;;5066824;28;20211;-82
2022/02/22 10:43:24;;;;;;;3.60;2.20;;;7.20;99.90;;;;;;5067046;28;20220;-83
2022/02/22 10:45:53;;;;;;;3.08;2.00;;;7.30;99.90;;;;;;5067362;28;20208;-82
2022/02/22 10:48:28;;;;;;;3.10;2.50;;;7.50;99.90;;;;;;5067407;28;20246;-81
2022/02/22 10:50:55;;;;;;;3.08;1.88;;;7.80;99.90;;;;;;5066649;28;20225;-82
2022/02/22 10:53:34;;;;;;;3.22;2.08;;;8.20;99.90;;;;;;5066669;28;20697;-83
2022/02/22 10:56:02;;;;;;;4.68;1.60;;;8.30;99.90;;;;;;5066711;28;20205;-82
2022/02/22 10:58:29;;;;;;;7.32;2.70;;;8.30;99.90;;;;;;5067287;28;20225;-82
2022/02/22 11:00:56;;;;;;;3.58;2.22;;;8.10;99.90;;;;;;5063984;28;20255;-82
2022/02/22 11:03:22;;;;;;;8.02;2.90;;;7.90;99.90;;;;;;5056963;28;20241;-81
2022/02/22 11:05:50;;;;;;;2.40;1.73;;;7.80;99.90;;;;;;5059867;28;20555;-82
2022/02/22 11:08:25;;;;;;;4.50;2.47;;;7.80;99.90;;;;;;5061509;28;20229;-82
2022/02/22 11:10:56;;;;;;;3.20;2.40;;;7.70;99.90;;;;;;5060809;28;20221;-81
2022/02/22 11:13:28;;;;;;;3.08;2.08;;;7.60;99.90;;;;;;5056909;28;20684;-82
2022/02/22 11:15:55;;;;;;;1.95;1.85;;;7.70;99.90;;;;;;5059944;28;20212;-82
2022/02/22 11:18:25;;;;;;;4.78;2.30;;;7.70;99.90;;;;;;5066186;28;20249;-82
2022/02/22 11:20:53;;;;;;;2.17;1.92;;;7.70;99.90;;;;;;5066183;28;20206;-82
2022/02/22 11:23:28;;;;;;;4.57;2.40;;;7.80;99.90;;;;;;5065859;28;20206;-83
2022/02/22 11:26:09;;;;;;;1.40;1.40;;;7.60;99.90;;;;;;5066368;28;20216;-82
2022/02/22 11:28:37;;;;;;;1.77;1.67;;;7.50;99.90;;;;;;5067004;28;20226;-82
2022/02/22 11:31:06;;;;;;;2.03;1.83;;;7.60;99.90;;;;;;5066608;28;20597;-82
2022/02/22 11:33:39;;;;;;;5.97;3.05;;;7.60;99.90;;;;;;5066107;28;20206;-82
2022/02/22 11:36:08;;;;;;;3.55;2.30;;;7.80;99.90;;;;;;5066931;28;20212;-82
2022/02/22 11:38:42;;;;;;;1.38;1.27;;;7.90;99.90;;;;;;5066396;28;20237;-82
2022/02/22 11:41:19;;;;;;;4.90;2.40;;;7.90;99.90;;;;;;5065989;28;20572;-82
2022/02/22 11:43:58;;;;;;;4.32;2.20;;;7.80;99.90;;;;;;5065928;28;20748;-82
2022/02/22 11:46:36;;;;;;;3.15;1.73;;;8.00;99.90;;;;;;5066708;28;20232;-82
2022/02/22 11:49:05;;;;;;;3.47;2.53;;;8.10;99.90;;;;;;5066013;28;20229;-82
2022/02/22 11:51:41;;;;;;;6.38;2.60;;;8.20;99.90;;;;;;5066003;28;20225;-82
2022/02/22 11:54:13;;;;;;;3.70;3.20;;;8.00;99.90;;;;;;5066069;28;20205;-82
2022/02/22 11:56:43;;;;;;;3.00;2.10;;;8.20;99.90;;;;;;5059860;28;20593;-81
2022/02/22 11:59:17;;;;;;;4.68;2.40;;;8.30;99.90;;;;;;5056534;28;20279;-82
2022/02/22 12:01:45;;;;;;;4.85;3.17;;;8.40;99.90;;;;;;5058512;28;20207;-82
2022/02/22 12:04:23;;;;;;;4.72;2.03;;;8.50;99.90;;;;;;5056202;28;20202;-81
2022/02/22 12:06:53;;;;;;;4.35;2.53;;;8.60;99.90;;;;;;5058961;28;20205;-82
2022/02/22 12:09:21;;;;;;;4.22;3.88;;;8.50;99.90;;;;;;5063508;28;20213;-82
2022/02/22 12:11:49;;;;;;;3.05;2.75;;;8.60;99.90;;;;;;5066938;28;20221;-82
2022/02/22 12:14:17;;;;;;;6.03;2.75;;;8.80;99.90;;;;;;5066214;28;20297;-82
2022/02/22 12:16:45;;;;;;;3.25;2.47;;;9.10;99.90;;;;;;5059504;28;20313;-82
2022/02/22 12:19:15;;;;;;;4.90;2.50;;;9.20;99.90;;;;;;5058531;28;20226;-82
2022/02/22 12:21:45;;;;;;;4.07;1.92;;;9.20;99.90;;;;;;5057999;28;20206;-81
2022/02/22 12:24:15;;;;;;;3.50;2.25;;;9.30;99.90;;;;;;5058562;28;20206;-82
2022/02/22 12:26:42;;;;;;;4.53;2.17;;;9.20;99.90;;;;;;5057669;28;20263;-81
2022/02/22 12:29:11;;;;;;;7.47;2.88;;;9.10;99.90;;;;;;5057594;28;20233;-81
2022/02/22 12:31:39;;;;;;;4.20;2.33;;;8.90;99.90;;;;;;5057826;28;20210;-81
2022/02/22 12:34:09;;;;;;;4.90;2.38;;;8.80;99.90;;;;;;5058247;28;20205;-82
2022/02/22 12:36:37;;;;;;;5.57;2.00;;;8.60;99.90;;;;;;5057663;28;20215;-81
2022/02/22 12:39:06;;;;;;;3.75;1.95;;;8.90;99.90;;;;;;5538826;22;20699;-82
2022/02/22 12:41:35;;;;;;;3.05;1.90;;;9.00;99.90;;;;;;5059612;28;20227;-81
2022/02/22 12:44:04;;;;;;;5.07;2.58;;;9.10;99.90;;;;;;5062387;28;20197;-83
2022/02/22 12:46:32;;;;;;;4.78;2.33;;;9.20;99.90;;;;;;5061716;28;20214;-83
2022/02/22 12:48:58;;;;;;;7.30;2.30;;;9.30;99.90;;;;;;5062669;28;20226;-82
2022/02/22 12:51:27;;;;;;;6.22;2.92;;;9.30;99.60;;;;;;5063417;28;20615;-82
2022/02/22 12:54:02;;;;;;;7.07;2.70;;;9.40;99.30;;;;;;5063882;28;20218;-81
2022/02/22 12:56:35;;;;;;;3.70;1.70;;;9.40;99.30;;;;;;5057740;28;20629;-81
2022/02/22 12:59:02;;;;;;;3.38;2.92;;;9.50;99.20;;;;;;5060588;28;20711;-81
2022/02/22 13:01:35;;;;;;;2.30;2.10;;;9.80;99.30;;;;;;5067822;28;20333;-81